createdAt,value
2023-02-18T00:01:37.747Z,14.98
2023-02-18T00:04:06.302Z,15.48
2023-02-18T00:06:36.360Z,15.00
2023-02-18T00:09:06.544Z,15.15
2023-02-18T00:11:36.520Z,14.65
2023-02-18T00:14:05.941Z,15.35
2023-02-18T00:16:34.366Z,14.88
2023-02-18T00:19:03.853Z,15.43
2023-02-18T00:21:32.642Z,14.65
2023-02-18T00:24:01.333Z,14.75
2023-02-18T00:26:31.292Z,15.57
2023-02-18T00:28:59.948Z,14.77
2023-02-18T00:31:29.377Z,15.95
2023-02-18T00:33:59.034Z,16.33
2023-02-18T00:36:28.142Z,15.52
2023-02-18T00:38:57.611Z,15.82
2023-02-18T00:41:27.051Z,16.48
2023-02-18T00:43:57.091Z,15.38
2023-02-18T00:46:26.517Z,16.05
2023-02-18T00:48:55.010Z,16.17
2023-02-18T00:51:23.522Z,16.95
2023-02-18T00:53:52.049Z,16.33
2023-02-18T00:56:20.493Z,15.90
2023-02-18T00:58:48.935Z,16.38
2023-02-18T01:01:18.746Z,16.60
2023-02-18T01:03:47.216Z,16.88
2023-02-18T01:06:15.652Z,17.05
2023-02-18T01:08:44.103Z,18.10
2023-02-18T01:11:13.881Z,16.83
2023-02-18T01:13:42.606Z,16.45
2023-02-18T01:16:11.413Z,15.30
2023-02-18T01:18:41.783Z,16.67
2023-02-18T01:21:10.637Z,17.45
2023-02-18T01:23:39.185Z,17.02
2023-02-18T01:26:08.199Z,16.02
2023-02-18T01:28:36.815Z,16.00
2023-02-18T01:31:07.682Z,15.73
2023-02-18T01:33:36.294Z,15.43
2023-02-18T01:36:07.121Z,15.57
2023-02-18T01:38:36.049Z,16.15
2023-02-18T01:41:04.536Z,15.13
2023-02-18T01:43:33.296Z,13.63
2023-02-18T01:46:04.873Z,13.88
2023-02-18T01:48:34.919Z,14.55
2023-02-18T01:51:04.951Z,14.07
2023-02-18T01:53:37.802Z,14.18
2023-02-18T01:56:08.696Z,13.18
2023-02-18T01:58:37.772Z,13.13
2023-02-18T02:01:06.546Z,13.02
2023-02-18T02:03:35.020Z,13.38
2023-02-18T02:06:03.492Z,12.20
2023-02-18T02:08:32.162Z,11.50
2023-02-18T02:11:09.626Z,11.32
2023-02-18T02:13:46.212Z,11.82
2023-02-18T02:16:18.029Z,10.98
2023-02-18T02:18:53.328Z,11.45
2023-02-18T02:21:48.791Z,11.60
2023-02-18T02:24:35.532Z,11.63
2023-02-18T02:27:21.926Z,11.18
2023-02-18T02:30:02.240Z,11.20
2023-02-18T02:32:40.954Z,10.55
2023-02-18T02:35:12.096Z,11.70
2023-02-18T02:37:43.925Z,12.02
2023-02-18T02:40:17.922Z,12.23
2023-02-18T02:42:49.083Z,12.20
2023-02-18T02:45:21.052Z,11.52
2023-02-18T02:47:51.737Z,12.23
2023-02-18T02:50:24.816Z,11.60
2023-02-18T02:52:55.349Z,11.90
2023-02-18T02:55:23.909Z,11.60
2023-02-18T02:57:53.357Z,11.38
2023-02-18T03:00:23.307Z,10.77
2023-02-18T03:03:00.299Z,10.95
2023-02-18T03:05:36.665Z,10.70
2023-02-18T03:08:16.563Z,10.52
2023-02-18T03:10:48.791Z,10.82
2023-02-18T03:13:26.058Z,10.43
2023-02-18T03:15:57.481Z,11.23
2023-02-18T03:18:29.604Z,11.82
2023-02-18T03:21:01.709Z,11.98
2023-02-18T03:23:34.372Z,12.63
2023-02-18T03:26:03.155Z,13.77
2023-02-18T03:28:33.053Z,13.77
2023-02-18T03:31:02.765Z,13.65
2023-02-18T03:33:33.180Z,13.68
2023-02-18T03:36:03.471Z,13.48
2023-02-18T03:38:33.933Z,14.05
2023-02-18T03:41:02.401Z,12.60
2023-02-18T03:43:31.108Z,12.70
2023-02-18T03:45:59.703Z,12.88
2023-02-18T03:48:28.226Z,12.85
2023-02-18T03:50:56.697Z,13.82
2023-02-18T03:53:26.578Z,13.38
2023-02-18T03:55:55.032Z,13.40
2023-02-18T03:58:23.458Z,14.15
2023-02-18T04:00:51.899Z,12.75
2023-02-18T04:03:20.360Z,13.27
2023-02-18T04:05:48.928Z,13.27
2023-02-18T04:08:17.326Z,12.60
2023-02-18T04:10:47.380Z,12.38
2023-02-18T04:13:16.530Z,11.60
2023-02-18T04:15:45.229Z,13.10
2023-02-18T04:18:13.695Z,11.70
2023-02-18T04:20:42.181Z,11.50
2023-02-18T04:23:10.571Z,10.90
2023-02-18T04:25:39.002Z,10.68
2023-02-18T04:28:11.265Z,10.05
2023-02-18T04:30:39.807Z,9.77
2023-02-18T04:33:08.342Z,8.60
2023-02-18T04:35:38.183Z,10.05
2023-02-18T04:38:06.840Z,9.80
2023-02-18T04:40:35.460Z,8.75
2023-02-18T04:43:04.338Z,8.80
2023-02-18T04:45:34.167Z,7.53
2023-02-18T04:48:02.608Z,8.38
2023-02-18T04:50:31.135Z,7.07
2023-02-18T04:52:59.606Z,6.80
2023-02-18T04:55:28.075Z,6.65
2023-02-18T04:57:56.658Z,6.22
2023-02-18T05:00:25.199Z,6.22
2023-02-18T05:02:55.034Z,5.68
2023-02-18T05:05:23.484Z,5.03
2023-02-18T05:07:51.916Z,5.30
2023-02-18T05:10:20.586Z,5.13
2023-02-18T05:12:49.035Z,6.13
2023-02-18T05:15:17.530Z,5.70
2023-02-18T05:17:45.994Z,5.63
2023-02-18T05:20:15.875Z,5.47
2023-02-18T05:22:44.348Z,5.18
2023-02-18T05:25:12.779Z,5.25
2023-02-18T05:27:41.361Z,4.85
2023-02-18T05:30:10.324Z,3.80
2023-02-18T05:32:38.852Z,3.95
2023-02-18T05:35:07.681Z,3.83
2023-02-18T05:37:37.690Z,3.95
2023-02-18T05:40:06.844Z,3.65
2023-02-18T05:42:35.281Z,3.42
2023-02-18T05:45:03.773Z,3.00
2023-02-18T05:47:32.238Z,3.13
2023-02-18T05:50:00.661Z,3.53
2023-02-18T05:52:29.099Z,3.22
2023-02-18T05:54:58.917Z,3.08
2023-02-18T05:57:27.427Z,3.05
2023-02-18T05:59:55.835Z,3.40
2023-02-18T06:02:24.499Z,3.30
2023-02-18T06:04:52.944Z,3.63
2023-02-18T06:07:21.398Z,3.38
2023-02-18T06:09:49.907Z,3.40
2023-02-18T06:12:19.731Z,3.63
2023-02-18T06:14:48.180Z,4.20
2023-02-18T06:17:18.763Z,3.90
2023-02-18T06:19:47.496Z,3.50
2023-02-18T06:22:16.194Z,4.13
2023-02-18T06:24:44.691Z,3.72
2023-02-18T06:27:13.171Z,3.85
2023-02-18T06:29:43.055Z,3.60
2023-02-18T06:32:11.559Z,3.85
2023-02-18T06:34:40.003Z,3.97
2023-02-18T06:37:08.445Z,4.13
2023-02-18T06:39:36.952Z,4.43
2023-02-18T06:42:05.545Z,4.25
2023-02-18T06:44:34.033Z,4.25
2023-02-18T06:47:03.852Z,4.90
2023-02-18T06:49:32.306Z,4.35
2023-02-18T06:52:00.748Z,4.80
2023-02-18T06:54:29.157Z,4.93
2023-02-18T06:56:57.812Z,4.97
2023-02-18T06:59:26.279Z,4.78
2023-02-18T07:01:54.785Z,4.72
2023-02-18T07:04:24.581Z,4.15
2023-02-18T07:06:53.014Z,3.83
2023-02-18T07:09:21.536Z,3.70
2023-02-18T07:11:50.021Z,3.38
2023-02-18T07:14:18.435Z,3.40
2023-02-18T07:16:46.859Z,3.70
2023-02-18T07:19:15.324Z,3.60
2023-02-18T07:21:45.114Z,3.15
2023-02-18T07:24:13.643Z,2.80
2023-02-18T07:26:42.058Z,2.70
2023-02-18T07:29:10.499Z,2.35
2023-02-18T07:31:39.218Z,2.58
2023-02-18T07:34:07.754Z,2.67
2023-02-18T07:36:36.242Z,2.28
2023-02-18T07:39:06.094Z,2.25
2023-02-18T07:41:34.540Z,2.17
2023-02-18T07:44:02.960Z,2.25
2023-02-18T07:46:31.484Z,2.13
2023-02-18T07:49:00.243Z,1.70
2023-02-18T07:51:28.643Z,1.83
2023-02-18T07:53:57.160Z,2.00
2023-02-18T07:56:26.998Z,2.25
2023-02-18T07:58:55.476Z,1.98
2023-02-18T08:01:23.996Z,2.40
2023-02-18T08:03:52.523Z,3.35
2023-02-18T08:06:23.237Z,3.00
2023-02-18T08:08:51.666Z,3.10
2023-02-18T08:11:20.087Z,3.00
2023-02-18T08:13:50.156Z,3.05
2023-02-18T08:16:19.220Z,2.40
2023-02-18T08:18:48.632Z,2.15
2023-02-18T08:21:17.414Z,2.35
2023-02-18T08:23:46.407Z,2.28
2023-02-18T08:26:15.509Z,2.22
2023-02-18T08:28:44.423Z,2.22
2023-02-18T08:31:19.695Z,2.70
2023-02-18T08:33:48.170Z,2.80
2023-02-18T08:36:16.653Z,2.97
2023-02-18T08:38:45.221Z,3.13
2023-02-18T08:41:14.471Z,3.30
2023-02-18T08:43:43.107Z,3.80
2023-02-18T08:46:15.886Z,3.83
2023-02-18T08:48:46.778Z,3.70
2023-02-18T08:51:16.392Z,4.50
2023-02-18T08:53:46.359Z,4.05
2023-02-18T08:56:15.678Z,3.75
2023-02-18T08:58:44.171Z,4.13
2023-02-18T09:01:13.740Z,3.63
2023-02-18T09:03:42.502Z,3.60
2023-02-18T09:06:12.284Z,3.60
2023-02-18T09:08:40.734Z,3.28
2023-02-18T09:11:11.074Z,3.88
2023-02-18T09:13:39.968Z,3.05
2023-02-18T09:16:09.588Z,3.10
2023-02-18T09:18:38.219Z,3.28
2023-02-18T09:21:08.288Z,3.20
2023-02-18T09:23:38.367Z,4.07
2023-02-18T09:26:07.140Z,3.65
2023-02-18T09:28:35.621Z,3.58
2023-02-18T09:31:06.477Z,3.72
2023-02-18T09:33:37.274Z,4.00
2023-02-18T09:36:06.099Z,3.60
2023-02-18T09:38:34.670Z,3.00
2023-02-18T09:41:07.449Z,3.42
2023-02-18T09:43:37.195Z,3.58
2023-02-18T09:46:06.991Z,3.65
2023-02-18T09:48:37.115Z,3.28
2023-02-18T09:51:05.786Z,3.03
2023-02-18T09:53:34.503Z,3.67
2023-02-18T09:56:04.591Z,2.95
2023-02-18T09:58:36.366Z,3.40
2023-02-18T10:01:07.802Z,3.58
2023-02-18T10:03:36.509Z,3.30
2023-02-18T10:06:06.542Z,3.35
2023-02-18T10:08:36.533Z,3.55
2023-02-18T10:11:06.823Z,3.33
2023-02-18T10:13:36.053Z,3.10
2023-02-18T10:16:05.364Z,3.17
2023-02-18T10:18:35.663Z,3.38
2023-02-18T10:21:08.279Z,3.95
2023-02-18T10:23:38.738Z,3.25
2023-02-18T10:26:12.140Z,3.60
2023-02-18T10:28:40.628Z,3.42
2023-02-18T10:31:11.412Z,3.42
2023-02-18T10:33:44.504Z,4.38
2023-02-18T10:36:30.824Z,3.55
2023-02-18T10:39:04.886Z,3.90
2023-02-18T10:41:36.608Z,3.88
2023-02-18T10:44:08.570Z,3.55
2023-02-18T10:46:40.522Z,4.13
2023-02-18T10:49:21.375Z,3.97
2023-02-18T10:51:52.510Z,4.60
2023-02-18T10:54:25.384Z,4.25
2023-02-18T10:57:00.123Z,3.88
2023-02-18T10:59:29.679Z,4.60
2023-02-18T11:01:59.406Z,4.50
2023-02-18T11:04:29.869Z,4.57
2023-02-18T11:06:58.428Z,5.13
2023-02-18T11:09:29.706Z,5.13
2023-02-18T11:12:08.813Z,5.60
2023-02-18T11:14:43.082Z,5.68
2023-02-18T11:17:16.680Z,5.35
2023-02-18T11:19:45.222Z,5.18
2023-02-18T11:22:17.422Z,6.45
2023-02-18T11:24:48.567Z,4.93
2023-02-18T11:27:22.508Z,4.97
2023-02-18T11:29:52.382Z,5.25
2023-02-18T11:32:21.042Z,4.93
2023-02-18T11:34:51.392Z,5.10
2023-02-18T11:37:21.293Z,5.22
2023-02-18T11:39:51.251Z,5.10
2023-02-18T11:42:22.690Z,5.90
2023-02-18T11:44:53.516Z,5.05
2023-02-18T11:47:23.210Z,5.13
2023-02-18T11:50:05.999Z,4.95
2023-02-18T11:52:36.501Z,5.72
2023-02-18T11:55:07.569Z,5.35
2023-02-18T11:57:39.184Z,6.15
2023-02-18T12:00:17.136Z,6.30
2023-02-18T12:02:45.699Z,6.22
2023-02-18T12:05:16.615Z,5.35
2023-02-18T12:07:46.345Z,5.50
2023-02-18T12:10:17.387Z,6.25
2023-02-18T12:12:49.138Z,6.03
2023-02-18T12:15:19.583Z,5.53
2023-02-18T12:17:53.760Z,6.03
2023-02-18T12:20:41.049Z,6.53
2023-02-18T12:23:16.067Z,6.45
2023-02-18T12:25:49.619Z,6.43
2023-02-18T12:28:25.818Z,6.03
2023-02-18T12:31:07.480Z,5.80
2023-02-18T12:33:40.899Z,6.35
2023-02-18T12:36:14.621Z,5.32
2023-02-18T12:39:00.884Z,5.35
2023-02-18T12:41:42.653Z,5.35
2023-02-18T12:44:19.105Z,6.32
2023-02-18T12:46:58.263Z,6.28
2023-02-18T12:49:44.805Z,6.68
2023-02-18T12:52:19.249Z,5.90
2023-02-18T12:54:57.259Z,6.22
2023-02-18T12:57:35.014Z,6.50
2023-02-18T13:00:18.126Z,6.50
2023-02-18T13:02:57.939Z,5.78
2023-02-18T13:05:31.643Z,6.65
2023-02-18T13:08:05.419Z,7.70
2023-02-18T13:10:45.553Z,7.35
2023-02-18T13:13:15.670Z,7.88
2023-02-18T13:15:47.886Z,6.93
2023-02-18T13:18:19.047Z,7.63
2023-02-18T13:20:50.160Z,8.65
2023-02-18T13:23:20.253Z,8.60
2023-02-18T13:25:50.039Z,8.65
2023-02-18T13:28:21.867Z,10.13
2023-02-18T13:30:54.655Z,9.82
2023-02-18T13:33:26.009Z,9.88
2023-02-18T13:35:57.012Z,10.25
2023-02-18T13:38:34.566Z,10.13
2023-02-18T13:41:03.647Z,10.90
2023-02-18T13:43:33.218Z,10.88
2023-02-18T13:46:07.447Z,9.63
2023-02-18T13:48:37.857Z,10.32
2023-02-18T13:51:07.044Z,11.23
2023-02-18T13:53:38.350Z,10.45
2023-02-18T13:56:09.455Z,11.60
2023-02-18T13:58:40.740Z,12.27
2023-02-18T14:01:16.144Z,11.43
2023-02-18T14:04:01.686Z,11.50
2023-02-18T14:06:32.372Z,11.63
2023-02-18T14:09:22.322Z,12.07
2023-02-18T14:11:55.895Z,12.02
2023-02-18T14:14:42.157Z,11.63
2023-02-18T14:17:30.973Z,12.05
2023-02-18T14:20:14.230Z,12.02
2023-02-18T14:22:46.935Z,13.05
2023-02-18T14:25:18.831Z,13.25
2023-02-18T14:27:47.324Z,13.10
2023-02-18T14:30:19.729Z,13.07
2023-02-18T14:32:51.304Z,13.02
2023-02-18T14:35:29.359Z,13.07
2023-02-18T14:38:06.829Z,12.98
2023-02-18T14:40:59.462Z,12.35
2023-02-18T14:43:34.594Z,13.20
2023-02-18T14:46:08.350Z,13.63
2023-02-18T14:48:58.976Z,13.63
2023-02-18T14:51:29.029Z,13.65
2023-02-18T14:53:57.578Z,12.73
2023-02-18T14:56:26.068Z,12.82
2023-02-18T14:58:56.237Z,14.38
2023-02-18T15:01:26.035Z,13.65
2023-02-18T15:03:56.659Z,14.05
2023-02-18T15:06:26.115Z,13.77
2023-02-18T15:08:54.651Z,13.60
2023-02-18T15:11:23.992Z,14.48
2023-02-18T15:13:52.818Z,14.32
2023-02-18T15:16:22.163Z,13.80
2023-02-18T15:18:53.422Z,14.00
2023-02-18T15:21:26.379Z,13.40
2023-02-18T15:23:55.233Z,11.98
2023-02-18T15:26:24.016Z,11.82
2023-02-18T15:28:56.906Z,11.50
2023-02-18T15:31:27.901Z,12.18
2023-02-18T15:33:56.402Z,12.30
2023-02-18T15:36:27.299Z,12.45
2023-02-18T15:38:56.064Z,11.90
2023-02-18T15:41:24.764Z,13.15
2023-02-18T15:43:54.308Z,13.18
2023-02-18T15:46:26.190Z,13.15
2023-02-18T15:48:55.250Z,12.55
2023-02-18T15:51:24.869Z,12.30
2023-02-18T15:53:56.500Z,12.77
2023-02-18T15:56:28.532Z,12.73
2023-02-18T15:58:59.103Z,12.48
2023-02-18T16:01:28.575Z,13.25
2023-02-18T16:03:57.468Z,12.50
2023-02-18T16:06:26.758Z,13.15
2023-02-18T16:09:00.649Z,12.68
2023-02-18T16:11:31.562Z,13.20
2023-02-18T16:14:00.603Z,12.55
2023-02-18T16:16:30.505Z,13.30
2023-02-18T16:18:59.088Z,12.50
2023-02-18T16:21:33.051Z,13.40
2023-02-18T16:24:04.149Z,13.00
2023-02-18T16:26:34.627Z,12.30
2023-02-18T16:29:04.585Z,12.60
2023-02-18T16:31:33.172Z,11.93
2023-02-18T16:34:01.648Z,12.23
2023-02-18T16:36:30.097Z,12.65
2023-02-18T16:38:58.857Z,11.85
2023-02-18T16:41:29.016Z,12.43
2023-02-18T16:43:57.791Z,11.80
2023-02-18T16:46:26.899Z,11.00
2023-02-18T16:48:56.727Z,11.52
2023-02-18T16:51:26.633Z,11.93
2023-02-18T16:53:55.546Z,11.38
2023-02-18T16:56:25.157Z,12.07
2023-02-18T16:58:55.046Z,11.75
2023-02-18T17:01:25.346Z,11.32
2023-02-18T17:03:54.105Z,11.38
2023-02-18T17:06:23.097Z,11.45
2023-02-18T17:08:51.774Z,11.38
2023-02-18T17:11:22.162Z,11.43
2023-02-18T17:13:51.065Z,11.55
2023-02-18T17:16:21.774Z,10.48
2023-02-18T17:18:50.423Z,10.52
2023-02-18T17:21:20.488Z,10.25
2023-02-18T17:23:49.014Z,10.73
2023-02-18T17:26:19.772Z,11.82
2023-02-18T17:28:48.913Z,10.75
2023-02-18T17:31:18.386Z,11.20
2023-02-18T17:33:48.428Z,11.77
2023-02-18T17:36:16.857Z,11.27
2023-02-18T17:38:45.309Z,11.50
2023-02-18T17:41:14.843Z,12.38
2023-02-18T17:43:43.271Z,11.65
2023-02-18T17:46:13.761Z,12.10
2023-02-18T17:48:42.566Z,11.38
2023-02-18T17:51:16.090Z,11.48
2023-02-18T17:53:44.472Z,11.65
2023-02-18T17:56:14.420Z,10.93
2023-02-18T17:58:42.923Z,11.20
2023-02-18T18:01:12.650Z,11.10
2023-02-18T18:03:41.074Z,9.85
2023-02-18T18:06:16.238Z,9.05
2023-02-18T18:08:46.100Z,9.70
2023-02-18T18:11:16.001Z,10.05
2023-02-18T18:13:44.454Z,9.35
2023-02-18T18:16:13.919Z,9.98
2023-02-18T18:18:42.582Z,9.43
2023-02-18T18:21:16.975Z,10.05
2023-02-18T18:23:46.766Z,10.20
2023-02-18T18:26:15.183Z,10.18
2023-02-18T18:28:43.643Z,10.00
2023-02-18T18:31:14.889Z,10.82
2023-02-18T18:33:48.697Z,10.60
2023-02-18T18:36:17.604Z,11.07
2023-02-18T18:38:47.692Z,10.05
2023-02-18T18:41:17.674Z,10.48
2023-02-18T18:43:46.739Z,10.63
2023-02-18T18:46:15.418Z,10.90
2023-02-18T18:48:43.858Z,11.20
2023-02-18T18:51:15.921Z,11.15
2023-02-18T18:53:44.671Z,11.07
2023-02-18T18:56:14.907Z,10.68
2023-02-18T18:58:43.407Z,10.95
2023-02-18T19:01:16.407Z,10.90
2023-02-18T19:03:45.185Z,10.57
2023-02-18T19:06:14.020Z,12.38
2023-02-18T19:08:42.421Z,13.15
2023-02-18T19:11:12.975Z,12.50
2023-02-18T19:13:42.806Z,13.10
2023-02-18T19:16:15.192Z,13.57
2023-02-18T19:18:43.630Z,14.60
2023-02-18T19:21:13.219Z,13.90
2023-02-18T19:23:42.034Z,15.50
2023-02-18T19:26:10.856Z,14.48
2023-02-18T19:28:39.346Z,14.23
2023-02-18T19:31:11.281Z,14.40
2023-02-18T19:33:40.440Z,14.60
2023-02-18T19:36:09.924Z,15.82
2023-02-18T19:38:38.420Z,15.20
2023-02-18T19:41:12.280Z,14.60
2023-02-18T19:43:40.924Z,14.93
2023-02-18T19:46:11.718Z,15.30
2023-02-18T19:48:40.151Z,14.18
2023-02-18T19:51:09.637Z,14.82
2023-02-18T19:53:38.298Z,15.10
2023-02-18T19:56:08.027Z,14.55
2023-02-18T19:58:37.016Z,15.45
2023-02-18T20:01:05.887Z,14.35
2023-02-18T20:03:35.696Z,14.20
2023-02-18T20:06:04.264Z,14.15
2023-02-18T20:08:36.910Z,13.25
2023-02-18T20:11:05.395Z,13.77
2023-02-18T20:13:33.895Z,13.15
2023-02-18T20:16:02.405Z,14.23
2023-02-18T20:18:30.985Z,13.27
2023-02-18T20:21:00.837Z,12.77
2023-02-18T20:23:29.519Z,12.85
2023-02-18T20:25:58.002Z,13.77
2023-02-18T20:28:26.472Z,13.25
2023-02-18T20:31:05.024Z,13.77
2023-02-18T20:33:33.569Z,12.75
2023-02-18T20:36:04.587Z,13.13
2023-02-18T20:38:33.431Z,13.88
2023-02-18T20:41:04.915Z,13.80
2023-02-18T20:43:33.395Z,12.93
2023-02-18T20:46:04.205Z,13.63
2023-02-18T20:48:33.027Z,13.30
2023-02-18T20:51:06.318Z,13.50
2023-02-18T20:53:35.255Z,14.32
2023-02-18T20:56:03.730Z,13.18
2023-02-18T20:58:32.533Z,13.65
2023-02-18T21:01:01.687Z,14.85
2023-02-18T21:03:30.213Z,14.45
2023-02-18T21:06:01.256Z,14.95
2023-02-18T21:08:31.415Z,13.45
2023-02-18T21:11:03.990Z,14.32
2023-02-18T21:13:32.527Z,15.23
2023-02-18T21:16:01.061Z,15.73
2023-02-18T21:18:29.624Z,15.30
2023-02-18T21:20:58.503Z,17.05
2023-02-18T21:23:26.981Z,17.50
2023-02-18T21:26:03.357Z,16.77
2023-02-18T21:28:32.048Z,16.05
2023-02-18T21:31:02.309Z,17.50
2023-02-18T21:33:30.895Z,16.65
2023-02-18T21:36:03.287Z,17.67
2023-02-18T21:38:31.772Z,16.98
2023-02-18T21:41:01.617Z,18.50
2023-02-18T21:43:30.109Z,18.15
2023-02-18T21:46:06.790Z,18.15
2023-02-18T21:48:53.042Z,19.05
2023-02-18T21:51:35.428Z,18.77
2023-02-18T21:54:03.946Z,17.50
2023-02-18T21:56:33.872Z,16.75
2023-02-18T21:59:02.433Z,17.02
2023-02-18T22:01:31.196Z,17.20
2023-02-18T22:03:59.706Z,17.88
2023-02-18T22:06:28.256Z,16.70
2023-02-18T22:08:56.755Z,16.63
2023-02-18T22:11:25.246Z,17.48
2023-02-18T22:13:55.370Z,16.92
2023-02-18T22:16:25.810Z,17.67
2023-02-18T22:18:54.507Z,17.60
2023-02-18T22:21:23.108Z,18.00
2023-02-18T22:23:51.603Z,16.77
2023-02-18T22:26:20.169Z,16.98
2023-02-18T22:28:52.320Z,16.05
2023-02-18T22:31:22.857Z,15.20
2023-02-18T22:33:52.389Z,15.48
2023-02-18T22:36:21.824Z,15.32
2023-02-18T22:38:50.654Z,15.50
2023-02-18T22:41:20.426Z,15.80
2023-02-18T22:43:48.959Z,15.13
2023-02-18T22:46:18.109Z,13.68
2023-02-18T22:48:47.975Z,14.18
2023-02-18T22:51:17.511Z,13.10
2023-02-18T22:53:46.193Z,13.15
2023-02-18T22:56:15.305Z,13.40
2023-02-18T22:58:44.175Z,13.10
2023-02-18T23:01:19.739Z,12.35
2023-02-18T23:03:49.920Z,12.43
2023-02-18T23:06:18.760Z,14.48
2023-02-18T23:08:47.546Z,13.60
2023-02-18T23:11:18.699Z,13.68
2023-02-18T23:14:07.523Z,15.23
2023-02-18T23:16:56.593Z,13.88
2023-02-18T23:19:27.564Z,13.05
2023-02-18T23:21:56.026Z,14.23
2023-02-18T23:24:24.790Z,15.43
2023-02-18T23:26:53.469Z,15.77
2023-02-18T23:29:22.562Z,16.27
2023-02-18T23:31:51.077Z,14.27
2023-02-18T23:34:19.581Z,15.18
2023-02-18T23:36:49.380Z,15.88
2023-02-18T23:39:18.773Z,15.00
2023-02-18T23:41:47.446Z,15.65
2023-02-18T23:44:16.865Z,16.02
2023-02-18T23:46:45.643Z,14.82
2023-02-18T23:49:16.208Z,14.75
2023-02-18T23:51:44.884Z,15.98
2023-02-18T23:54:14.712Z,14.57
2023-02-18T23:56:43.104Z,14.55
2023-02-18T23:59:12.209Z,16.17
